DLH39X EDDF-LPPT
Flight info
| Callsign | DLH39X |
|---|---|
| Flight time | N/A |
| Altitude | 33000 |
| Route | SOBRA2L/18 SOBRA Y180 DIK UN857 TOLVU DCT RAPOR DCT GIMER DCT ESTOC UT300 PON UN872 GODIX/N0457F310 UN872 DIDAK/N0455F330 UN872 ERIGA UZ218 FUJTI DCT ATLEN DCT ABUPI/N0454F350 DCT XAMAX |
| Aircraft | A321/M-SDE3FGHIRWY/LB1 |
Departure
| Time | 2026-04-16 22:00 |
|---|---|
| Airport | Frankfurt Main Airport (EDDF) |
Arrival
| Time | N/A |
|---|---|
| Airport | Lisbon Humberto Delgado Airport (LPPT) |
| Time | Latitude | Longitude | Altitude | Speed | Heading |
|---|---|---|---|---|---|
| 2026-04-16 21:35 | 50.04752 | 8.56884 | 362 ft | 0 kts | 295° |
| 2026-04-16 21:46 | 50.04747 | 8.56900 | 369 ft | 2 kts | 297° |
| 2026-04-16 21:46 | 50.04740 | 8.56923 | 369 ft | 2 kts | 295° |
| 2026-04-16 21:46 | 50.04733 | 8.56947 | 370 ft | 2 kts | 271° |
| 2026-04-16 21:47 | 50.04734 | 8.56972 | 369 ft | 2 kts | 254° |
| 2026-04-16 21:47 | 50.04741 | 8.56995 | 368 ft | 2 kts | 216° |
| 2026-04-16 21:47 | 50.04744 | 8.56999 | 368 ft | 0 kts | 206° |
| 2026-04-16 21:51 | 50.04732 | 8.56990 | 372 ft | 4 kts | 206° |
| 2026-04-16 21:51 | 50.04691 | 8.56959 | 369 ft | 9 kts | 205° |
| 2026-04-16 21:51 | 50.04621 | 8.56916 | 369 ft | 12 kts | 196° |
| 2026-04-16 21:52 | 50.04540 | 8.56886 | 367 ft | 12 kts | 194° |
| 2026-04-16 21:52 | 50.04460 | 8.56837 | 368 ft | 13 kts | 229° |
| 2026-04-16 21:52 | 50.04417 | 8.56682 | 367 ft | 18 kts | 249° |
| 2026-04-16 21:52 | 50.04366 | 8.56473 | 370 ft | 23 kts | 249° |
| 2026-04-16 21:53 | 50.04305 | 8.56217 | 370 ft | 28 kts | 250° |
| 2026-04-16 21:53 | 50.04234 | 8.55919 | 371 ft | 30 kts | 249° |
| 2026-04-16 21:53 | 50.04162 | 8.55616 | 369 ft | 30 kts | 249° |
| 2026-04-16 21:53 | 50.04097 | 8.55345 | 369 ft | 29 kts | 250° |
| 2026-04-16 21:54 | 50.04028 | 8.55054 | 370 ft | 28 kts | 249° |
| 2026-04-16 21:54 | 50.03959 | 8.54768 | 372 ft | 28 kts | 250° |
| 2026-04-16 21:54 | 50.03890 | 8.54485 | 370 ft | 28 kts | 249° |
| 2026-04-16 21:54 | 50.03821 | 8.54266 | 371 ft | 18 kts | 234° |
| 2026-04-16 21:55 | 50.03769 | 8.54094 | 368 ft | 18 kts | 250° |
| 2026-04-16 21:55 | 50.03727 | 8.53916 | 368 ft | 18 kts | 249° |
| 2026-04-16 21:55 | 50.03684 | 8.53735 | 371 ft | 18 kts | 249° |
| 2026-04-16 21:55 | 50.03634 | 8.53540 | 369 ft | 21 kts | 248° |
| 2026-04-16 21:56 | 50.03578 | 8.53304 | 370 ft | 25 kts | 250° |
| 2026-04-16 21:56 | 50.03514 | 8.53036 | 371 ft | 27 kts | 250° |
| 2026-04-16 21:56 | 50.03458 | 8.52816 | 370 ft | 18 kts | 246° |
| 2026-04-16 21:56 | 50.03435 | 8.52733 | 370 ft | 0 kts | 246° |
| 2026-04-16 21:58 | 50.03425 | 8.52699 | 371 ft | 8 kts | 246° |
| 2026-04-16 21:59 | 50.03388 | 8.52600 | 369 ft | 12 kts | 216° |
| 2026-04-16 21:59 | 50.03360 | 8.52594 | 369 ft | 0 kts | 180° |
| 2026-04-16 21:59 | 50.03348 | 8.52594 | 369 ft | 10 kts | 180° |
| 2026-04-16 21:59 | 50.03159 | 8.52597 | 371 ft | 53 kts | 179° |
| 2026-04-16 22:00 | 50.02559 | 8.52601 | 370 ft | 117 kts | 180° |
| 2026-04-16 22:00 | 50.01554 | 8.52610 | 368 ft | 170 kts | 179° |
| 2026-04-16 22:00 | 50.00261 | 8.52625 | 659 ft | 189 kts | 178° |
| 2026-04-16 22:00 | 49.98957 | 8.52700 | 1379 ft | 188 kts | 176° |
| 2026-04-16 22:01 | 49.97641 | 8.52791 | 1928 ft | 195 kts | 176° |
| 2026-04-16 22:01 | 49.95667 | 8.52940 | 2125 ft | 224 kts | 176° |
| 2026-04-16 22:01 | 49.89048 | 8.53388 | 4184 ft | 243 kts | 178° |
| 2026-04-16 22:01 | 49.82693 | 8.49880 | 4313 ft | 269 kts | 237° |
| 2026-04-16 22:02 | 49.82313 | 8.41211 | 4601 ft | 239 kts | 275° |
| 2026-04-16 22:02 | 49.82607 | 8.36165 | 5298 ft | 266 kts | 275° |
| 2026-04-16 22:02 | 49.82948 | 8.30416 | 6690 ft | 270 kts | 275° |
| 2026-04-16 22:02 | 49.83305 | 8.24583 | 7939 ft | 274 kts | 275° |
| 2026-04-16 22:03 | 49.83667 | 8.18639 | 9194 ft | 279 kts | 275° |
| 2026-04-16 22:03 | 49.84030 | 8.12603 | 10417 ft | 284 kts | 274° |
| 2026-04-16 22:03 | 49.84415 | 8.06139 | 10728 ft | 320 kts | 274° |
| 2026-04-16 22:03 | 49.85237 | 7.92081 | 11558 ft | 369 kts | 275° |
| 2026-04-16 22:04 | 49.86289 | 7.76125 | 13613 ft | 376 kts | 283° |
| 2026-04-16 22:04 | 49.88806 | 7.60250 | 15425 ft | 383 kts | 283° |
| 2026-04-16 22:04 | 49.91280 | 7.43998 | 17178 ft | 390 kts | 283° |
| 2026-04-16 22:04 | 49.93787 | 7.27495 | 18753 ft | 397 kts | 283° |
| 2026-04-16 22:05 | 49.96314 | 7.10693 | 20182 ft | 403 kts | 283° |
| 2026-04-16 22:05 | 49.98857 | 6.93619 | 21572 ft | 408 kts | 283° |
| 2026-04-16 22:05 | 49.98866 | 6.75859 | 22822 ft | 416 kts | 269° |
| 2026-04-16 22:05 | 49.98236 | 6.57772 | 24013 ft | 424 kts | 262° |
| 2026-04-16 22:06 | 49.93867 | 6.40535 | 25062 ft | 432 kts | 250° |
| 2026-04-16 22:06 | 49.83232 | 6.06700 | 26929 ft | 443 kts | 238° |
| 2026-04-16 22:06 | 49.76134 | 5.91273 | 28008 ft | 438 kts | 238° |
| 2026-04-16 22:07 | 49.71374 | 5.74660 | 29145 ft | 425 kts | 253° |
| 2026-04-16 22:07 | 49.67343 | 5.57603 | 30339 ft | 419 kts | 252° |
| 2026-04-16 22:07 | 49.63364 | 5.40749 | 31223 ft | 417 kts | 252° |
| 2026-04-16 22:07 | 49.59577 | 5.23667 | 32012 ft | 415 kts | 254° |
| 2026-04-16 22:08 | 49.56523 | 5.06827 | 32823 ft | 412 kts | 257° |
| 2026-04-16 22:08 | 49.53562 | 4.89753 | 33209 ft | 415 kts | 256° |
| 2026-04-16 22:08 | 49.47390 | 4.55785 | 33298 ft | 413 kts | 256° |
| 2026-04-16 22:09 | 49.44276 | 4.38866 | 33125 ft | 413 kts | 256° |
| 2026-04-16 22:09 | 49.41156 | 4.22004 | 33258 ft | 408 kts | 255° |
| 2026-04-16 22:09 | 49.35099 | 3.88231 | 33161 ft | 413 kts | 259° |
| 2026-04-16 22:10 | 49.30322 | 3.54049 | 33358 ft | 408 kts | 258° |
| 2026-04-16 22:10 | 49.27810 | 3.36944 | 33195 ft | 414 kts | 258° |
| 2026-04-16 22:10 | 49.26146 | 3.25653 | 33261 ft | 413 kts | 258° |
| 2026-04-16 22:11 | 49.20125 | 2.85703 | 33181 ft | 415 kts | 257° |
| 2026-04-16 22:11 | 49.14881 | 2.51675 | 33346 ft | 407 kts | 257° |
| 2026-04-16 22:12 | 49.11460 | 2.22978 | 33245 ft | 412 kts | 262° |
| 2026-04-16 22:12 | 49.05458 | 1.89885 | 33227 ft | 411 kts | 246° |
| 2026-04-16 22:13 | 48.95881 | 1.58183 | 33250 ft | 413 kts | 246° |
| 2026-04-16 22:13 | 48.86155 | 1.26470 | 33266 ft | 414 kts | 246° |
| 2026-04-16 22:14 | 48.76328 | 0.94904 | 33266 ft | 413 kts | 246° |
| 2026-04-16 22:14 | 48.62598 | 0.67137 | 33190 ft | 419 kts | 225° |
| 2026-04-16 22:15 | 48.45000 | 0.43639 | 33278 ft | 423 kts | 225° |
| 2026-04-16 22:15 | 48.27480 | 0.20126 | 33263 ft | 421 kts | 225° |
| 2026-04-16 22:16 | 48.09938 | -0.03107 | 33257 ft | 421 kts | 224° |
| 2026-04-16 22:16 | 47.92340 | -0.26197 | 33242 ft | 421 kts | 224° |
| 2026-04-16 22:17 | 47.74785 | -0.49055 | 33240 ft | 422 kts | 224° |
| 2026-04-16 22:17 | 47.56929 | -0.72075 | 33245 ft | 423 kts | 224° |
| 2026-04-16 22:18 | 47.39101 | -0.94836 | 33266 ft | 423 kts | 224° |
| 2026-04-16 22:18 | 47.21383 | -1.17243 | 33253 ft | 422 kts | 223° |
| 2026-04-16 22:19 | 47.03392 | -1.39797 | 33252 ft | 422 kts | 223° |
| 2026-04-16 22:19 | 46.85575 | -1.61926 | 33251 ft | 423 kts | 223° |
| 2026-04-16 22:20 | 46.67554 | -1.84115 | 33255 ft | 423 kts | 223° |
| 2026-04-16 22:20 | 46.49505 | -2.06108 | 33265 ft | 423 kts | 223° |
| 2026-04-16 22:21 | 46.31447 | -2.27940 | 33240 ft | 422 kts | 223° |
| 2026-04-16 22:21 | 46.13343 | -2.49627 | 33242 ft | 422 kts | 222° |
| 2026-04-16 22:22 | 45.95238 | -2.71141 | 33258 ft | 421 kts | 222° |
| 2026-04-16 22:22 | 45.77123 | -2.92468 | 33264 ft | 420 kts | 222° |
| 2026-04-16 22:23 | 45.59022 | -3.13596 | 33270 ft | 420 kts | 222° |
| 2026-04-16 22:23 | 45.40903 | -3.34564 | 33260 ft | 419 kts | 222° |
| 2026-04-16 22:24 | 45.22783 | -3.55356 | 33265 ft | 418 kts | 222° |
| 2026-04-16 22:24 | 45.04769 | -3.75849 | 33252 ft | 418 kts | 222° |
| 2026-04-16 22:25 | 44.86612 | -3.96332 | 33247 ft | 417 kts | 222° |
| 2026-04-16 22:25 | 44.68421 | -4.16678 | 33261 ft | 418 kts | 222° |
| 2026-04-16 22:26 | 44.50179 | -4.36944 | 33226 ft | 418 kts | 221° |
| 2026-04-16 22:26 | 44.31832 | -4.57120 | 33244 ft | 420 kts | 221° |
| 2026-04-16 22:27 | 44.13434 | -4.77204 | 33264 ft | 420 kts | 221° |
| 2026-04-16 22:27 | 43.94988 | -4.97181 | 33275 ft | 420 kts | 221° |
| 2026-04-16 22:28 | 43.76502 | -5.17034 | 33259 ft | 420 kts | 221° |
| 2026-04-16 22:28 | 43.57973 | -5.36779 | 33260 ft | 420 kts | 220° |
| 2026-04-16 22:29 | 43.39522 | -5.56287 | 33255 ft | 421 kts | 220° |
| 2026-04-16 22:29 | 43.20896 | -5.75823 | 33259 ft | 421 kts | 220° |
| 2026-04-16 22:30 | 43.02224 | -5.95255 | 33796 ft | 421 kts | 220° |
| 2026-04-16 22:30 | 42.92921 | -6.04880 | 34624 ft | 417 kts | 220° |
| 2026-04-16 22:30 | 42.83690 | -6.14388 | 35236 ft | 415 kts | 220° |
| 2026-04-16 22:31 | 42.65233 | -6.33298 | 35155 ft | 414 kts | 219° |
| 2026-04-16 22:31 | 42.56009 | -6.42699 | 35268 ft | 412 kts | 219° |
| 2026-04-16 22:31 | 42.46796 | -6.52055 | 35238 ft | 415 kts | 219° |
| 2026-04-16 22:32 | 42.28301 | -6.70714 | 35226 ft | 412 kts | 219° |
| 2026-04-16 22:32 | 42.09746 | -6.89293 | 35150 ft | 416 kts | 219° |
| 2026-04-16 22:33 | 41.98974 | -7.00009 | 35200 ft | 415 kts | 219° |
| 2026-04-16 22:33 | 41.94320 | -7.04629 | 35191 ft | 416 kts | 219° |
| 2026-04-16 22:34 | 41.89650 | -7.09252 | 35200 ft | 417 kts | 219° |
| 2026-04-16 22:34 | 41.85003 | -7.13853 | 35208 ft | 418 kts | 219° |
| 2026-04-16 22:35 | 41.80327 | -7.18476 | 35217 ft | 418 kts | 218° |
| 2026-04-16 22:35 | 41.75639 | -7.23084 | 35211 ft | 418 kts | 217° |
| 2026-04-16 22:36 | 41.70627 | -7.27105 | 35209 ft | 420 kts | 212° |
| 2026-04-16 22:36 | 41.65570 | -7.31039 | 35216 ft | 420 kts | 212° |
| 2026-04-16 22:37 | 41.60507 | -7.34965 | 35220 ft | 421 kts | 212° |
| 2026-04-16 22:37 | 41.55444 | -7.38886 | 35221 ft | 421 kts | 212° |
| 2026-04-16 22:38 | 41.50373 | -7.42801 | 35201 ft | 421 kts | 212° |
| 2026-04-16 22:38 | 41.45296 | -7.46713 | 35210 ft | 422 kts | 212° |
| 2026-04-16 22:39 | 41.40211 | -7.50636 | 35211 ft | 422 kts | 212° |
| 2026-04-16 22:39 | 41.35121 | -7.54545 | 35210 ft | 422 kts | 212° |
| 2026-04-16 22:40 | 41.30026 | -7.58454 | 35199 ft | 422 kts | 212° |
| 2026-04-16 22:40 | 41.24934 | -7.62361 | 35197 ft | 422 kts | 212° |
| 2026-04-16 22:41 | 41.19849 | -7.66250 | 35198 ft | 421 kts | 212° |
| 2026-04-16 22:41 | 41.14790 | -7.70097 | 35197 ft | 421 kts | 212° |
| 2026-04-16 22:42 | 41.09702 | -7.73973 | 35198 ft | 422 kts | 212° |
| 2026-04-16 22:42 | 41.04613 | -7.77851 | 35192 ft | 422 kts | 211° |
| 2026-04-16 22:43 | 40.99509 | -7.81730 | 35192 ft | 423 kts | 211° |
| 2026-04-16 22:43 | 40.94391 | -7.85605 | 35200 ft | 424 kts | 211° |
| 2026-04-16 22:44 | 40.89262 | -7.89474 | 35211 ft | 424 kts | 211° |
| 2026-04-16 22:44 | 40.84134 | -7.93344 | 35203 ft | 425 kts | 211° |
| 2026-04-16 22:45 | 40.78997 | -7.97225 | 35205 ft | 425 kts | 211° |
| 2026-04-16 22:45 | 40.73854 | -8.01097 | 35212 ft | 425 kts | 211° |
| 2026-04-16 22:46 | 40.68709 | -8.04961 | 35219 ft | 426 kts | 211° |
| 2026-04-16 22:46 | 40.63555 | -8.08821 | 35221 ft | 426 kts | 211° |
| 2026-04-16 22:47 | 40.58436 | -8.12639 | 35213 ft | 426 kts | 211° |
| 2026-04-16 22:47 | 40.53278 | -8.16490 | 35216 ft | 427 kts | 211° |
| 2026-04-16 22:48 | 40.48114 | -8.20351 | 35221 ft | 427 kts | 211° |
| 2026-04-16 22:48 | 40.42942 | -8.24201 | 35226 ft | 427 kts | 211° |
| 2026-04-16 22:49 | 40.37766 | -8.28043 | 35227 ft | 427 kts | 211° |
| 2026-04-16 22:49 | 40.32587 | -8.31881 | 35227 ft | 427 kts | 211° |
| 2026-04-16 22:50 | 40.27412 | -8.35714 | 34993 ft | 426 kts | 211° |
| 2026-04-16 22:50 | 40.24833 | -8.37618 | 34431 ft | 425 kts | 211° |
| 2026-04-16 22:50 | 40.22246 | -8.39525 | 33621 ft | 428 kts | 211° |
| 2026-04-16 22:51 | 40.19656 | -8.41434 | 32897 ft | 427 kts | 211° |
| 2026-04-16 22:51 | 40.17068 | -8.43342 | 32136 ft | 428 kts | 211° |
| 2026-04-16 22:51 | 40.14468 | -8.45258 | 31351 ft | 429 kts | 211° |
| 2026-04-16 22:51 | 40.11854 | -8.47182 | 30517 ft | 433 kts | 210° |
| 2026-04-16 22:52 | 40.09223 | -8.49118 | 29604 ft | 435 kts | 210° |
| 2026-04-16 22:52 | 40.06596 | -8.51049 | 29154 ft | 426 kts | 210° |
| 2026-04-16 22:52 | 40.04043 | -8.52920 | 28880 ft | 415 kts | 210° |
| 2026-04-16 22:52 | 40.01594 | -8.54750 | 28621 ft | 408 kts | 212° |
| 2026-04-16 22:53 | 39.99152 | -8.56706 | 28350 ft | 405 kts | 213° |
| 2026-04-16 22:53 | 39.96787 | -8.58689 | 28092 ft | 403 kts | 214° |
| 2026-04-16 22:53 | 39.94468 | -8.60665 | 27828 ft | 408 kts | 214° |
| 2026-04-16 22:53 | 39.92041 | -8.62730 | 27563 ft | 424 kts | 214° |
| 2026-04-16 22:54 | 39.89528 | -8.64881 | 27307 ft | 439 kts | 214° |
| 2026-04-16 22:54 | 39.86945 | -8.67093 | 27051 ft | 448 kts | 214° |
| 2026-04-16 22:54 | 39.84325 | -8.69336 | 26799 ft | 451 kts | 214° |
| 2026-04-16 22:54 | 39.81701 | -8.71580 | 26550 ft | 452 kts | 214° |
| 2026-04-16 22:55 | 39.79075 | -8.73823 | 26312 ft | 450 kts | 214° |
| 2026-04-16 22:55 | 39.76454 | -8.76060 | 26066 ft | 449 kts | 214° |
| 2026-04-16 22:55 | 39.74729 | -8.77531 | 25904 ft | 447 kts | 214° |
| 2026-04-16 22:55 | 39.72131 | -8.79743 | 25657 ft | 446 kts | 214° |
| 2026-04-16 22:56 | 39.69540 | -8.81947 | 25418 ft | 444 kts | 214° |
| 2026-04-16 22:56 | 39.66952 | -8.84151 | 25163 ft | 445 kts | 214° |
| 2026-04-16 22:56 | 39.64369 | -8.86354 | 24934 ft | 444 kts | 214° |
| 2026-04-16 22:56 | 39.61789 | -8.88551 | 24698 ft | 442 kts | 214° |
| 2026-04-16 22:57 | 39.59215 | -8.90740 | 24451 ft | 440 kts | 214° |
| 2026-04-16 22:57 | 39.56674 | -8.92900 | 23853 ft | 435 kts | 214° |
| 2026-04-16 22:57 | 39.54154 | -8.95035 | 23078 ft | 431 kts | 214° |
| 2026-04-16 22:57 | 39.51654 | -8.97144 | 22315 ft | 426 kts | 214° |
| 2026-04-16 22:58 | 39.49175 | -8.99225 | 21566 ft | 422 kts | 214° |
| 2026-04-16 22:58 | 39.46717 | -9.01277 | 20823 ft | 419 kts | 214° |
| 2026-04-16 22:58 | 39.44276 | -9.03307 | 20089 ft | 415 kts | 214° |
| 2026-04-16 22:58 | 39.41852 | -9.05319 | 19369 ft | 412 kts | 214° |
| 2026-04-16 22:59 | 39.39443 | -9.07307 | 18693 ft | 409 kts | 214° |
| 2026-04-16 22:59 | 39.37048 | -9.09273 | 17948 ft | 406 kts | 214° |
| 2026-04-16 22:59 | 39.34707 | -9.11202 | 17254 ft | 402 kts | 214° |
| 2026-04-16 22:59 | 39.32363 | -9.13141 | 16565 ft | 398 kts | 214° |
| 2026-04-16 23:00 | 39.30012 | -9.15092 | 15885 ft | 394 kts | 214° |
| 2026-04-16 23:00 | 39.27717 | -9.17002 | 15222 ft | 391 kts | 214° |
| 2026-04-16 23:00 | 39.25476 | -9.18874 | 14568 ft | 388 kts | 214° |
| 2026-04-16 23:00 | 39.23220 | -9.20763 | 13917 ft | 385 kts | 214° |
| 2026-04-16 23:01 | 39.20985 | -9.22639 | 13208 ft | 381 kts | 214° |
| 2026-04-16 23:01 | 39.18774 | -9.24504 | 12484 ft | 379 kts | 214° |
| 2026-04-16 23:01 | 39.16579 | -9.26359 | 11814 ft | 375 kts | 214° |
| 2026-04-16 23:01 | 39.14413 | -9.28190 | 11153 ft | 371 kts | 214° |
| 2026-04-16 23:02 | 39.12269 | -9.30002 | 10551 ft | 366 kts | 214° |
| 2026-04-16 23:02 | 39.10192 | -9.31759 | 10409 ft | 348 kts | 214° |
| 2026-04-16 23:02 | 39.08213 | -9.33429 | 10287 ft | 331 kts | 214° |
| 2026-04-16 23:02 | 39.06336 | -9.35011 | 10166 ft | 315 kts | 214° |
| 2026-04-16 23:03 | 39.04542 | -9.36522 | 10048 ft | 301 kts | 214° |
| 2026-04-16 23:03 | 39.02829 | -9.37963 | 9917 ft | 288 kts | 214° |
| 2026-04-16 23:03 | 39.01176 | -9.39354 | 9657 ft | 281 kts | 214° |
| 2026-04-16 23:03 | 38.99549 | -9.40722 | 9288 ft | 279 kts | 214° |
| 2026-04-16 23:04 | 38.97935 | -9.42084 | 8917 ft | 277 kts | 214° |
| 2026-04-16 23:04 | 38.96333 | -9.43440 | 8530 ft | 275 kts | 214° |
| 2026-04-16 23:04 | 38.94744 | -9.44791 | 8232 ft | 272 kts | 214° |
| 2026-04-16 23:04 | 38.93166 | -9.46132 | 8199 ft | 273 kts | 213° |
| 2026-04-16 23:05 | 38.91447 | -9.47124 | 8205 ft | 273 kts | 192° |
| 2026-04-16 23:05 | 38.89553 | -9.47221 | 8201 ft | 274 kts | 180° |
| 2026-04-16 23:05 | 38.87641 | -9.47125 | 8201 ft | 276 kts | 179° |
| 2026-04-16 23:05 | 38.85716 | -9.47019 | 8202 ft | 275 kts | 180° |
| 2026-04-16 23:06 | 38.83808 | -9.46889 | 8201 ft | 274 kts | 179° |
| 2026-04-16 23:06 | 38.81901 | -9.46765 | 8194 ft | 275 kts | 180° |
| 2026-04-16 23:06 | 38.80018 | -9.46644 | 8152 ft | 277 kts | 179° |
| 2026-04-16 23:06 | 38.78111 | -9.46519 | 8187 ft | 274 kts | 179° |
| 2026-04-16 23:07 | 38.76204 | -9.46390 | 8194 ft | 275 kts | 179° |
| 2026-04-16 23:07 | 38.74298 | -9.46258 | 8194 ft | 273 kts | 178° |
| 2026-04-16 23:07 | 38.72382 | -9.46139 | 8196 ft | 277 kts | 179° |
| 2026-04-16 23:07 | 38.70483 | -9.46045 | 8007 ft | 276 kts | 179° |
| 2026-04-16 23:08 | 38.68567 | -9.45956 | 7626 ft | 275 kts | 179° |
| 2026-04-16 23:08 | 38.66663 | -9.45870 | 7253 ft | 273 kts | 179° |
| 2026-04-16 23:08 | 38.64766 | -9.45788 | 6889 ft | 272 kts | 179° |
| 2026-04-16 23:08 | 38.62885 | -9.45709 | 6557 ft | 269 kts | 179° |
| 2026-04-16 23:09 | 38.61021 | -9.45635 | 6171 ft | 268 kts | 179° |
| 2026-04-16 23:09 | 38.59163 | -9.45571 | 5802 ft | 266 kts | 179° |
| 2026-04-16 23:09 | 38.57375 | -9.45214 | 5636 ft | 256 kts | 160° |
| 2026-04-16 23:09 | 38.55893 | -9.44068 | 5511 ft | 246 kts | 137° |
| 2026-04-16 23:10 | 38.54908 | -9.42330 | 5280 ft | 241 kts | 115° |
| 2026-04-16 23:10 | 38.54530 | -9.40259 | 4961 ft | 241 kts | 92° |
| 2026-04-16 23:10 | 38.54812 | -9.38167 | 4762 ft | 244 kts | 70° |
| 2026-04-16 23:10 | 38.55461 | -9.36070 | 4624 ft | 259 kts | 69° |
| 2026-04-16 23:11 | 38.56124 | -9.33916 | 4507 ft | 261 kts | 70° |
| 2026-04-16 23:11 | 38.57295 | -9.30083 | 4290 ft | 260 kts | 70° |
| 2026-04-16 23:11 | 38.58614 | -9.25794 | 4067 ft | 259 kts | 66° |
| 2026-04-16 23:11 | 38.61094 | -9.22670 | 3577 ft | 253 kts | 24° |
| 2026-04-16 23:12 | 38.62863 | -9.21735 | 3268 ft | 247 kts | 22° |
| 2026-04-16 23:12 | 38.64435 | -9.20904 | 2926 ft | 242 kts | 23° |
| 2026-04-16 23:12 | 38.65967 | -9.20088 | 2611 ft | 236 kts | 23° |
| 2026-04-16 23:12 | 38.67462 | -9.19291 | 2322 ft | 229 kts | 22° |
| 2026-04-16 23:13 | 38.68872 | -9.18540 | 2020 ft | 218 kts | 22° |
| 2026-04-16 23:13 | 38.70215 | -9.17823 | 1753 ft | 200 kts | 22° |
| 2026-04-16 23:13 | 38.71437 | -9.17170 | 1499 ft | 179 kts | 22° |
| 2026-04-16 23:13 | 38.72515 | -9.16590 | 1268 ft | 158 kts | 22° |
| 2026-04-16 23:14 | 38.73509 | -9.16058 | 1089 ft | 152 kts | 20° |
| 2026-04-16 23:14 | 38.74480 | -9.15539 | 836 ft | 149 kts | 18° |
| 2026-04-16 23:14 | 38.75093 | -9.15220 | 740 ft | 151 kts | 20° |
| 2026-04-16 23:14 | 38.76057 | -9.14702 | 545 ft | 151 kts | 18° |
| 2026-04-16 23:15 | 38.77842 | -9.13748 | 343 ft | 106 kts | 23° |
| 2026-04-16 23:15 | 38.78362 | -9.13468 | 349 ft | 56 kts | 22° |